sensor_id;sensor_type;location;lat;lon;timestamp;P1;durP1;ratioP1;P2;durP2;ratioP2
14510;SDS011;7341;50.930;4.038;2022-12-05T00:00:03;61.40;;;27.60;;
14510;SDS011;7341;50.930;4.038;2022-12-05T00:02:32;56.10;;;27.40;;
14510;SDS011;7341;50.930;4.038;2022-12-05T00:04:59;62.13;;;29.23;;
14510;SDS011;7341;50.930;4.038;2022-12-05T00:07:26;54.87;;;26.03;;
14510;SDS011;7341;50.930;4.038;2022-12-05T00:09:53;62.87;;;28.57;;
14510;SDS011;7341;50.930;4.038;2022-12-05T00:12:20;55.63;;;26.17;;
14510;SDS011;7341;50.930;4.038;2022-12-05T00:14:49;61.00;;;27.97;;
14510;SDS011;7341;50.930;4.038;2022-12-05T00:17:16;54.07;;;26.43;;
14510;SDS011;7341;50.930;4.038;2022-12-05T00:19:45;61.47;;;27.10;;
14510;SDS011;7341;50.930;4.038;2022-12-05T00:22:13;56.03;;;26.07;;
14510;SDS011;7341;50.930;4.038;2022-12-05T00:24:39;62.97;;;27.13;;
14510;SDS011;7341;50.930;4.038;2022-12-05T00:27:07;63.60;;;27.03;;
14510;SDS011;7341;50.930;4.038;2022-12-05T00:29:35;61.73;;;27.37;;
14510;SDS011;7341;50.930;4.038;2022-12-05T00:32:02;54.87;;;26.60;;
14510;SDS011;7341;50.930;4.038;2022-12-05T00:34:29;61.07;;;27.57;;
14510;SDS011;7341;50.930;4.038;2022-12-05T00:36:57;62.17;;;27.10;;
14510;SDS011;7341;50.930;4.038;2022-12-05T00:39:24;60.83;;;27.00;;
14510;SDS011;7341;50.930;4.038;2022-12-05T00:41:51;56.23;;;27.17;;
14510;SDS011;7341;50.930;4.038;2022-12-05T00:44:18;66.77;;;28.87;;
14510;SDS011;7341;50.930;4.038;2022-12-05T00:46:45;62.77;;;26.93;;
14510;SDS011;7341;50.930;4.038;2022-12-05T00:49:12;57.87;;;25.93;;
14510;SDS011;7341;50.930;4.038;2022-12-05T00:51:40;60.77;;;26.30;;
14510;SDS011;7341;50.930;4.038;2022-12-05T00:54:09;64.03;;;27.23;;
14510;SDS011;7341;50.930;4.038;2022-12-05T00:56:38;59.43;;;25.83;;
14510;SDS011;7341;50.930;4.038;2022-12-05T00:59:05;60.07;;;27.13;;
14510;SDS011;7341;50.930;4.038;2022-12-05T01:01:34;61.53;;;28.37;;
14510;SDS011;7341;50.930;4.038;2022-12-05T01:04:02;61.50;;;28.00;;
14510;SDS011;7341;50.930;4.038;2022-12-05T01:06:30;63.67;;;28.33;;
14510;SDS011;7341;50.930;4.038;2022-12-05T01:08:58;64.63;;;26.93;;
14510;SDS011;7341;50.930;4.038;2022-12-05T01:11:26;63.37;;;28.37;;
14510;SDS011;7341;50.930;4.038;2022-12-05T01:13:54;79.28;;;35.17;;
14510;SDS011;7341;50.930;4.038;2022-12-05T01:16:23;65.17;;;30.20;;
14510;SDS011;7341;50.930;4.038;2022-12-05T01:18:52;62.93;;;29.00;;
14510;SDS011;7341;50.930;4.038;2022-12-05T01:21:20;67.13;;;30.37;;
14510;SDS011;7341;50.930;4.038;2022-12-05T01:23:47;60.53;;;27.80;;
14510;SDS011;7341;50.930;4.038;2022-12-05T01:26:15;65.50;;;28.77;;
14510;SDS011;7341;50.930;4.038;2022-12-05T01:28:44;65.03;;;28.00;;
14510;SDS011;7341;50.930;4.038;2022-12-05T01:31:15;62.97;;;28.50;;
14510;SDS011;7341;50.930;4.038;2022-12-05T01:33:46;64.30;;;28.30;;
14510;SDS011;7341;50.930;4.038;2022-12-05T01:36:14;64.87;;;27.97;;
14510;SDS011;7341;50.930;4.038;2022-12-05T01:38:42;57.30;;;26.53;;
14510;SDS011;7341;50.930;4.038;2022-12-05T01:41:10;60.97;;;28.50;;
14510;SDS011;7341;50.930;4.038;2022-12-05T01:43:53;53.87;;;26.73;;
14510;SDS011;7341;50.930;4.038;2022-12-05T01:46:25;58.43;;;28.37;;
14510;SDS011;7341;50.930;4.038;2022-12-05T01:48:57;60.23;;;27.27;;
14510;SDS011;7341;50.930;4.038;2022-12-05T01:51:28;62.67;;;27.53;;
14510;SDS011;7341;50.930;4.038;2022-12-05T01:53:56;55.67;;;26.33;;
14510;SDS011;7341;50.930;4.038;2022-12-05T01:56:24;52.77;;;26.80;;
14510;SDS011;7341;50.930;4.038;2022-12-05T01:58:52;54.60;;;26.93;;
14510;SDS011;7341;50.930;4.038;2022-12-05T02:01:21;60.03;;;26.90;;
14510;SDS011;7341;50.930;4.038;2022-12-05T02:03:49;58.73;;;27.10;;
14510;SDS011;7341;50.930;4.038;2022-12-05T02:06:19;58.07;;;26.90;;
14510;SDS011;7341;50.930;4.038;2022-12-05T02:08:47;58.17;;;28.50;;
14510;SDS011;7341;50.930;4.038;2022-12-05T02:11:16;54.37;;;26.23;;
14510;SDS011;7341;50.930;4.038;2022-12-05T02:14:13;48.07;;;24.90;;
14510;SDS011;7341;50.930;4.038;2022-12-05T02:16:53;61.20;;;27.60;;
14510;SDS011;7341;50.930;4.038;2022-12-05T02:19:35;52.47;;;26.17;;
14510;SDS011;7341;50.930;4.038;2022-12-05T02:22:26;55.27;;;26.17;;
14510;SDS011;7341;50.930;4.038;2022-12-05T02:25:21;56.13;;;26.27;;
14510;SDS011;7341;50.930;4.038;2022-12-05T02:31:05;49.47;;;23.97;;
14510;SDS011;7341;50.930;4.038;2022-12-05T02:33:36;56.43;;;27.63;;
14510;SDS011;7341;50.930;4.038;2022-12-05T02:36:10;56.70;;;26.53;;
14510;SDS011;7341;50.930;4.038;2022-12-05T02:38:43;52.77;;;26.70;;
14510;SDS011;7341;50.930;4.038;2022-12-05T02:41:18;55.27;;;26.67;;
14510;SDS011;7341;50.930;4.038;2022-12-05T02:43:50;51.73;;;24.90;;
14510;SDS011;7341;50.930;4.038;2022-12-05T02:46:22;70.90;;;37.58;;
14510;SDS011;7341;50.930;4.038;2022-12-05T02:48:53;58.10;;;29.27;;
14510;SDS011;7341;50.930;4.038;2022-12-05T02:51:23;54.37;;;28.33;;
14510;SDS011;7341;50.930;4.038;2022-12-05T02:53:54;57.67;;;28.00;;
14510;SDS011;7341;50.930;4.038;2022-12-05T02:56:24;50.63;;;27.23;;
14510;SDS011;7341;50.930;4.038;2022-12-05T02:58:52;58.37;;;27.73;;
14510;SDS011;7341;50.930;4.038;2022-12-05T03:01:22;54.00;;;26.20;;
14510;SDS011;7341;50.930;4.038;2022-12-05T03:03:51;51.53;;;25.73;;
14510;SDS011;7341;50.930;4.038;2022-12-05T03:06:18;49.17;;;26.57;;
14510;SDS011;7341;50.930;4.038;2022-12-05T03:08:49;50.77;;;26.50;;
14510;SDS011;7341;50.930;4.038;2022-12-05T03:11:19;57.87;;;27.53;;
14510;SDS011;7341;50.930;4.038;2022-12-05T03:13:47;50.93;;;27.47;;
14510;SDS011;7341;50.930;4.038;2022-12-05T03:16:19;50.97;;;26.07;;
14510;SDS011;7341;50.930;4.038;2022-12-05T03:18:50;55.20;;;27.33;;
14510;SDS011;7341;50.930;4.038;2022-12-05T03:21:22;56.23;;;26.73;;
14510;SDS011;7341;50.930;4.038;2022-12-05T03:23:57;58.43;;;27.57;;
14510;SDS011;7341;50.930;4.038;2022-12-05T03:26:35;53.50;;;25.77;;
14510;SDS011;7341;50.930;4.038;2022-12-05T03:29:18;51.47;;;25.63;;
14510;SDS011;7341;50.930;4.038;2022-12-05T03:31:51;49.73;;;25.80;;
14510;SDS011;7341;50.930;4.038;2022-12-05T03:34:31;47.90;;;26.37;;
14510;SDS011;7341;50.930;4.038;2022-12-05T03:37:12;54.93;;;26.43;;
14510;SDS011;7341;50.930;4.038;2022-12-05T03:39:45;46.63;;;25.47;;
14510;SDS011;7341;50.930;4.038;2022-12-05T03:42:21;51.20;;;26.17;;
14510;SDS011;7341;50.930;4.038;2022-12-05T03:44:56;44.40;;;25.53;;
14510;SDS011;7341;50.930;4.038;2022-12-05T03:47:29;60.70;;;34.03;;
14510;SDS011;7341;50.930;4.038;2022-12-05T03:50:04;51.27;;;27.43;;
14510;SDS011;7341;50.930;4.038;2022-12-05T03:52:38;46.47;;;25.00;;
14510;SDS011;7341;50.930;4.038;2022-12-05T03:55:09;49.97;;;25.57;;
14510;SDS011;7341;50.930;4.038;2022-12-05T03:57:40;49.30;;;25.30;;
14510;SDS011;7341;50.930;4.038;2022-12-05T04:00:10;47.40;;;23.57;;
14510;SDS011;7341;50.930;4.038;2022-12-05T04:02:41;45.53;;;25.20;;
14510;SDS011;7341;50.930;4.038;2022-12-05T04:05:16;48.70;;;24.50;;
14510;SDS011;7341;50.930;4.038;2022-12-05T04:07:46;47.57;;;24.77;;
14510;SDS011;7341;50.930;4.038;2022-12-05T04:10:18;49.47;;;24.87;;
14510;SDS011;7341;50.930;4.038;2022-12-05T04:12:51;48.27;;;24.47;;
14510;SDS011;7341;50.930;4.038;2022-12-05T04:15:22;47.77;;;23.83;;
14510;SDS011;7341;50.930;4.038;2022-12-05T04:17:51;52.90;;;29.98;;
14510;SDS011;7341;50.930;4.038;2022-12-05T04:20:25;48.23;;;25.93;;
14510;SDS011;7341;50.930;4.038;2022-12-05T04:23:13;43.40;;;23.57;;
14510;SDS011;7341;50.930;4.038;2022-12-05T04:25:46;45.93;;;24.00;;
14510;SDS011;7341;50.930;4.038;2022-12-05T04:28:22;46.27;;;24.20;;
14510;SDS011;7341;50.930;4.038;2022-12-05T04:30:54;48.13;;;24.50;;
14510;SDS011;7341;50.930;4.038;2022-12-05T04:33:27;46.10;;;23.37;;
14510;SDS011;7341;50.930;4.038;2022-12-05T04:36:04;43.90;;;23.97;;
14510;SDS011;7341;50.930;4.038;2022-12-05T04:38:36;41.27;;;22.83;;
14510;SDS011;7341;50.930;4.038;2022-12-05T04:41:08;39.77;;;21.77;;
14510;SDS011;7341;50.930;4.038;2022-12-05T04:43:40;43.47;;;24.53;;
14510;SDS011;7341;50.930;4.038;2022-12-05T04:46:10;43.10;;;23.37;;
14510;SDS011;7341;50.930;4.038;2022-12-05T04:48:40;55.13;;;31.35;;
14510;SDS011;7341;50.930;4.038;2022-12-05T04:51:11;44.83;;;24.80;;
14510;SDS011;7341;50.930;4.038;2022-12-05T04:53:42;48.90;;;24.50;;
14510;SDS011;7341;50.930;4.038;2022-12-05T04:56:11;47.23;;;25.13;;
14510;SDS011;7341;50.930;4.038;2022-12-05T04:58:43;46.43;;;23.40;;
14510;SDS011;7341;50.930;4.038;2022-12-05T05:01:12;40.77;;;23.50;;
14510;SDS011;7341;50.930;4.038;2022-12-05T05:03:43;43.97;;;22.47;;
14510;SDS011;7341;50.930;4.038;2022-12-05T05:06:14;41.60;;;21.97;;
14510;SDS011;7341;50.930;4.038;2022-12-05T05:08:46;38.70;;;23.13;;
14510;SDS011;7341;50.930;4.038;2022-12-05T05:11:15;49.97;;;23.73;;
14510;SDS011;7341;50.930;4.038;2022-12-05T05:13:44;43.97;;;22.87;;
14510;SDS011;7341;50.930;4.038;2022-12-05T05:16:12;44.83;;;22.80;;
14510;SDS011;7341;50.930;4.038;2022-12-05T05:18:42;46.57;;;23.73;;
14510;SDS011;7341;50.930;4.038;2022-12-05T05:21:14;46.77;;;24.00;;
14510;SDS011;7341;50.930;4.038;2022-12-05T05:23:42;43.93;;;24.13;;
14510;SDS011;7341;50.930;4.038;2022-12-05T05:26:09;45.80;;;22.93;;
14510;SDS011;7341;50.930;4.038;2022-12-05T05:28:36;53.43;;;24.37;;
14510;SDS011;7341;50.930;4.038;2022-12-05T05:31:04;49.43;;;25.33;;
14510;SDS011;7341;50.930;4.038;2022-12-05T05:33:31;49.57;;;24.77;;
14510;SDS011;7341;50.930;4.038;2022-12-05T05:36:01;48.97;;;23.67;;
14510;SDS011;7341;50.930;4.038;2022-12-05T05:38:30;49.77;;;24.10;;
14510;SDS011;7341;50.930;4.038;2022-12-05T05:41:00;45.67;;;24.60;;
14510;SDS011;7341;50.930;4.038;2022-12-05T05:43:27;46.70;;;24.80;;
14510;SDS011;7341;50.930;4.038;2022-12-05T05:45:53;51.63;;;24.90;;
14510;SDS011;7341;50.930;4.038;2022-12-05T05:48:20;47.03;;;23.73;;
14510;SDS011;7341;50.930;4.038;2022-12-05T05:50:47;66.43;;;37.22;;
14510;SDS011;7341;50.930;4.038;2022-12-05T05:53:14;54.77;;;27.67;;
14510;SDS011;7341;50.930;4.038;2022-12-05T05:55:42;56.37;;;27.77;;
14510;SDS011;7341;50.930;4.038;2022-12-05T05:58:09;59.37;;;30.07;;
14510;SDS011;7341;50.930;4.038;2022-12-05T06:00:36;47.20;;;24.93;;
14510;SDS011;7341;50.930;4.038;2022-12-05T06:03:02;50.50;;;25.73;;
14510;SDS011;7341;50.930;4.038;2022-12-05T06:05:29;53.93;;;25.37;;
14510;SDS011;7341;50.930;4.038;2022-12-05T06:07:56;51.57;;;24.53;;
14510;SDS011;7341;50.930;4.038;2022-12-05T06:10:23;48.43;;;25.27;;
14510;SDS011;7341;50.930;4.038;2022-12-05T06:12:51;48.43;;;25.47;;
14510;SDS011;7341;50.930;4.038;2022-12-05T06:15:18;51.93;;;24.97;;
14510;SDS011;7341;50.930;4.038;2022-12-05T06:17:45;46.80;;;26.07;;
14510;SDS011;7341;50.930;4.038;2022-12-05T06:20:12;52.87;;;26.60;;
14510;SDS011;7341;50.930;4.038;2022-12-05T06:22:39;52.47;;;26.33;;
14510;SDS011;7341;50.930;4.038;2022-12-05T06:25:06;48.27;;;25.20;;
14510;SDS011;7341;50.930;4.038;2022-12-05T06:27:34;48.87;;;26.10;;
14510;SDS011;7341;50.930;4.038;2022-12-05T06:30:03;49.93;;;25.40;;
14510;SDS011;7341;50.930;4.038;2022-12-05T06:32:31;50.20;;;25.67;;
14510;SDS011;7341;50.930;4.038;2022-12-05T06:35:00;50.40;;;25.67;;
14510;SDS011;7341;50.930;4.038;2022-12-05T06:37:35;47.20;;;24.67;;
14510;SDS011;7341;50.930;4.038;2022-12-05T06:40:02;50.17;;;26.20;;
14510;SDS011;7341;50.930;4.038;2022-12-05T06:42:30;50.70;;;25.50;;
14510;SDS011;7341;50.930;4.038;2022-12-05T06:45:05;54.90;;;26.50;;
14510;SDS011;7341;50.930;4.038;2022-12-05T06:47:32;56.60;;;28.77;;
14510;SDS011;7341;50.930;4.038;2022-12-05T06:49:59;50.47;;;25.67;;
14510;SDS011;7341;50.930;4.038;2022-12-05T06:52:25;64.28;;;36.80;;
14510;SDS011;7341;50.930;4.038;2022-12-05T06:54:52;58.70;;;28.43;;
14510;SDS011;7341;50.930;4.038;2022-12-05T06:57:22;51.47;;;27.77;;
14510;SDS011;7341;50.930;4.038;2022-12-05T06:59:49;51.67;;;25.57;;
14510;SDS011;7341;50.930;4.038;2022-12-05T07:02:37;47.30;;;26.23;;
14510;SDS011;7341;50.930;4.038;2022-12-05T07:05:08;47.07;;;25.73;;
14510;SDS011;7341;50.930;4.038;2022-12-05T07:07:35;53.90;;;26.27;;
14510;SDS011;7341;50.930;4.038;2022-12-05T07:10:03;50.20;;;26.33;;
14510;SDS011;7341;50.930;4.038;2022-12-05T07:12:31;53.30;;;25.93;;
14510;SDS011;7341;50.930;4.038;2022-12-05T07:14:58;51.63;;;25.87;;
14510;SDS011;7341;50.930;4.038;2022-12-05T07:17:26;55.33;;;28.20;;
14510;SDS011;7341;50.930;4.038;2022-12-05T07:19:54;56.77;;;27.47;;
14510;SDS011;7341;50.930;4.038;2022-12-05T07:22:21;51.50;;;27.70;;
14510;SDS011;7341;50.930;4.038;2022-12-05T07:24:50;49.27;;;26.40;;
14510;SDS011;7341;50.930;4.038;2022-12-05T07:27:17;49.47;;;26.63;;
14510;SDS011;7341;50.930;4.038;2022-12-05T07:29:44;51.90;;;27.93;;
14510;SDS011;7341;50.930;4.038;2022-12-05T07:32:12;54.57;;;26.60;;
14510;SDS011;7341;50.930;4.038;2022-12-05T07:34:40;53.40;;;27.27;;
14510;SDS011;7341;50.930;4.038;2022-12-05T07:37:09;56.83;;;27.53;;
14510;SDS011;7341;50.930;4.038;2022-12-05T07:39:37;57.23;;;26.50;;
14510;SDS011;7341;50.930;4.038;2022-12-05T07:42:04;51.60;;;28.33;;
14510;SDS011;7341;50.930;4.038;2022-12-05T07:44:31;53.43;;;26.83;;
14510;SDS011;7341;50.930;4.038;2022-12-05T07:46:58;54.60;;;28.07;;
14510;SDS011;7341;50.930;4.038;2022-12-05T07:49:25;53.53;;;28.10;;
14510;SDS011;7341;50.930;4.038;2022-12-05T07:51:52;56.87;;;27.80;;
14510;SDS011;7341;50.930;4.038;2022-12-05T07:54:22;75.65;;;41.67;;
14510;SDS011;7341;50.930;4.038;2022-12-05T07:56:49;60.87;;;31.37;;
14510;SDS011;7341;50.930;4.038;2022-12-05T07:59:16;58.97;;;29.10;;
14510;SDS011;7341;50.930;4.038;2022-12-05T08:01:43;56.27;;;29.77;;
14510;SDS011;7341;50.930;4.038;2022-12-05T08:04:10;59.37;;;28.17;;
14510;SDS011;7341;50.930;4.038;2022-12-05T08:06:37;54.87;;;27.37;;
14510;SDS011;7341;50.930;4.038;2022-12-05T08:09:04;60.47;;;28.37;;
14510;SDS011;7341;50.930;4.038;2022-12-05T08:11:34;52.33;;;27.73;;
14510;SDS011;7341;50.930;4.038;2022-12-05T08:14:02;53.20;;;27.73;;
14510;SDS011;7341;50.930;4.038;2022-12-05T08:16:30;49.03;;;27.37;;
14510;SDS011;7341;50.930;4.038;2022-12-05T08:18:58;76.95;;;41.15;;
14510;SDS011;7341;50.930;4.038;2022-12-05T08:21:26;58.47;;;28.73;;
14510;SDS011;7341;50.930;4.038;2022-12-05T08:23:53;72.23;;;37.23;;
14510;SDS011;7341;50.930;4.038;2022-12-05T08:26:21;69.37;;;30.93;;
14510;SDS011;7341;50.930;4.038;2022-12-05T08:28:51;53.80;;;29.13;;
14510;SDS011;7341;50.930;4.038;2022-12-05T08:31:19;57.83;;;28.73;;
14510;SDS011;7341;50.930;4.038;2022-12-05T08:33:48;55.77;;;28.60;;
14510;SDS011;7341;50.930;4.038;2022-12-05T08:36:16;58.47;;;27.63;;
14510;SDS011;7341;50.930;4.038;2022-12-05T08:38:44;57.37;;;28.37;;
14510;SDS011;7341;50.930;4.038;2022-12-05T08:41:12;57.93;;;28.63;;
14510;SDS011;7341;50.930;4.038;2022-12-05T08:43:40;55.93;;;29.40;;
14510;SDS011;7341;50.930;4.038;2022-12-05T08:46:09;54.40;;;28.93;;
14510;SDS011;7341;50.930;4.038;2022-12-05T08:48:36;54.20;;;28.00;;
14510;SDS011;7341;50.930;4.038;2022-12-05T08:51:03;58.00;;;28.60;;
14510;SDS011;7341;50.930;4.038;2022-12-05T08:53:31;48.67;;;26.70;;
14510;SDS011;7341;50.930;4.038;2022-12-05T08:55:59;78.47;;;44.78;;
14510;SDS011;7341;50.930;4.038;2022-12-05T08:58:26;55.00;;;31.67;;
14510;SDS011;7341;50.930;4.038;2022-12-05T09:00:54;60.63;;;30.03;;
14510;SDS011;7341;50.930;4.038;2022-12-05T09:03:29;51.00;;;27.00;;
14510;SDS011;7341;50.930;4.038;2022-12-05T09:06:03;44.47;;;26.47;;
14510;SDS011;7341;50.930;4.038;2022-12-05T09:08:32;44.53;;;25.13;;
14510;SDS011;7341;50.930;4.038;2022-12-05T09:10:58;47.03;;;26.13;;
14510;SDS011;7341;50.930;4.038;2022-12-05T09:13:29;44.23;;;24.73;;
14510;SDS011;7341;50.930;4.038;2022-12-05T09:15:56;44.10;;;24.97;;
14510;SDS011;7341;50.930;4.038;2022-12-05T09:18:22;44.73;;;25.50;;
14510;SDS011;7341;50.930;4.038;2022-12-05T09:20:51;43.77;;;24.50;;
14510;SDS011;7341;50.930;4.038;2022-12-05T09:23:17;43.07;;;25.47;;
14510;SDS011;7341;50.930;4.038;2022-12-05T09:25:44;45.43;;;24.90;;
14510;SDS011;7341;50.930;4.038;2022-12-05T09:28:20;47.20;;;25.37;;
14510;SDS011;7341;50.930;4.038;2022-12-05T09:30:54;49.20;;;26.50;;
14510;SDS011;7341;50.930;4.038;2022-12-05T09:33:21;42.40;;;23.73;;
14510;SDS011;7341;50.930;4.038;2022-12-05T09:35:48;41.67;;;23.80;;
14510;SDS011;7341;50.930;4.038;2022-12-05T09:38:17;45.70;;;22.17;;
14510;SDS011;7341;50.930;4.038;2022-12-05T09:40:43;44.20;;;24.43;;
14510;SDS011;7341;50.930;4.038;2022-12-05T09:43:14;46.43;;;24.27;;
14510;SDS011;7341;50.930;4.038;2022-12-05T09:45:50;41.30;;;23.20;;
14510;SDS011;7341;50.930;4.038;2022-12-05T09:48:23;42.53;;;24.53;;
14510;SDS011;7341;50.930;4.038;2022-12-05T09:50:53;45.30;;;25.80;;
14510;SDS011;7341;50.930;4.038;2022-12-05T09:53:23;41.87;;;24.17;;
14510;SDS011;7341;50.930;4.038;2022-12-05T09:55:55;52.30;;;31.23;;
14510;SDS011;7341;50.930;4.038;2022-12-05T09:58:40;45.90;;;25.17;;
14510;SDS011;7341;50.930;4.038;2022-12-05T10:01:11;36.93;;;24.00;;
14510;SDS011;7341;50.930;4.038;2022-12-05T10:03:57;39.83;;;23.93;;
14510;SDS011;7341;50.930;4.038;2022-12-05T10:06:39;34.37;;;22.50;;
14510;SDS011;7341;50.930;4.038;2022-12-05T10:09:13;41.53;;;23.60;;
14510;SDS011;7341;50.930;4.038;2022-12-05T10:11:55;34.07;;;21.33;;
14510;SDS011;7341;50.930;4.038;2022-12-05T10:14:29;37.20;;;21.17;;
14510;SDS011;7341;50.930;4.038;2022-12-05T10:17:07;36.10;;;21.80;;
14510;SDS011;7341;50.930;4.038;2022-12-05T10:19:43;35.33;;;22.20;;
14510;SDS011;7341;50.930;4.038;2022-12-05T10:22:15;38.40;;;22.23;;
14510;SDS011;7341;50.930;4.038;2022-12-05T10:24:47;33.67;;;26.55;;
14510;SDS011;7341;50.930;4.038;2022-12-05T10:27:17;34.20;;;21.57;;
14510;SDS011;7341;50.930;4.038;2022-12-05T10:29:47;33.43;;;21.63;;
14510;SDS011;7341;50.930;4.038;2022-12-05T10:32:19;30.00;;;20.33;;
14510;SDS011;7341;50.930;4.038;2022-12-05T10:34:51;29.57;;;20.03;;
14510;SDS011;7341;50.930;4.038;2022-12-05T10:37:26;29.10;;;19.17;;
14510;SDS011;7341;50.930;4.038;2022-12-05T10:39:54;27.87;;;19.00;;
14510;SDS011;7341;50.930;4.038;2022-12-05T10:42:24;32.17;;;21.63;;
14510;SDS011;7341;50.930;4.038;2022-12-05T10:44:55;31.10;;;19.97;;
14510;SDS011;7341;50.930;4.038;2022-12-05T10:47:24;31.03;;;20.23;;
14510;SDS011;7341;50.930;4.038;2022-12-05T10:49:51;30.67;;;20.10;;
14510;SDS011;7341;50.930;4.038;2022-12-05T10:52:19;32.10;;;20.23;;
14510;SDS011;7341;50.930;4.038;2022-12-05T10:54:48;35.50;;;20.43;;
14510;SDS011;7341;50.930;4.038;2022-12-05T10:57:20;33.53;;;20.10;;
14510;SDS011;7341;50.930;4.038;2022-12-05T10:59:48;33.67;;;21.30;;
14510;SDS011;7341;50.930;4.038;2022-12-05T11:02:17;30.63;;;19.10;;
14510;SDS011;7341;50.930;4.038;2022-12-05T11:04:48;29.13;;;18.57;;
14510;SDS011;7341;50.930;4.038;2022-12-05T11:07:23;26.13;;;17.53;;
14510;SDS011;7341;50.930;4.038;2022-12-05T11:09:53;29.52;;;24.08;;
14510;SDS011;7341;50.930;4.038;2022-12-05T11:12:21;26.70;;;18.30;;
14510;SDS011;7341;50.930;4.038;2022-12-05T11:14:53;26.47;;;18.63;;
14510;SDS011;7341;50.930;4.038;2022-12-05T11:17:24;27.57;;;18.53;;
14510;SDS011;7341;50.930;4.038;2022-12-05T11:19:55;24.43;;;17.27;;
14510;SDS011;7341;50.930;4.038;2022-12-05T11:22:29;26.80;;;19.03;;
14510;SDS011;7341;50.930;4.038;2022-12-05T11:24:58;24.90;;;18.45;;
14510;SDS011;7341;50.930;4.038;2022-12-05T11:27:27;24.03;;;17.20;;
14510;SDS011;7341;50.930;4.038;2022-12-05T11:29:59;24.57;;;17.53;;
14510;SDS011;7341;50.930;4.038;2022-12-05T11:32:28;24.30;;;16.60;;
14510;SDS011;7341;50.930;4.038;2022-12-05T11:34:57;23.53;;;17.80;;
14510;SDS011;7341;50.930;4.038;2022-12-05T11:37:34;21.17;;;16.20;;
14510;SDS011;7341;50.930;4.038;2022-12-05T11:40:13;26.33;;;17.00;;
14510;SDS011;7341;50.930;4.038;2022-12-05T11:42:45;23.70;;;17.30;;
14510;SDS011;7341;50.930;4.038;2022-12-05T11:45:27;26.30;;;16.33;;
14510;SDS011;7341;50.930;4.038;2022-12-05T11:48:09;28.20;;;18.93;;
14510;SDS011;7341;50.930;4.038;2022-12-05T11:50:44;29.13;;;19.90;;
14510;SDS011;7341;50.930;4.038;2022-12-05T11:53:30;25.60;;;17.43;;
14510;SDS011;7341;50.930;4.038;2022-12-05T11:56:14;24.73;;;17.53;;
14510;SDS011;7341;50.930;4.038;2022-12-05T11:58:55;28.17;;;19.00;;
14510;SDS011;7341;50.930;4.038;2022-12-05T12:01:36;28.00;;;18.70;;
14510;SDS011;7341;50.930;4.038;2022-12-05T12:04:19;25.40;;;18.53;;
14510;SDS011;7341;50.930;4.038;2022-12-05T12:07:00;25.47;;;18.03;;
14510;SDS011;7341;50.930;4.038;2022-12-05T12:09:42;28.37;;;19.80;;
14510;SDS011;7341;50.930;4.038;2022-12-05T12:12:16;26.13;;;19.47;;
14510;SDS011;7341;50.930;4.038;2022-12-05T12:14:51;29.00;;;19.23;;
14510;SDS011;7341;50.930;4.038;2022-12-05T12:17:28;30.97;;;20.53;;
14510;SDS011;7341;50.930;4.038;2022-12-05T12:22:53;32.93;;;19.70;;
14510;SDS011;7341;50.930;4.038;2022-12-05T12:25:32;30.53;;;19.77;;
14510;SDS011;7341;50.930;4.038;2022-12-05T12:28:14;28.83;;;20.50;;
14510;SDS011;7341;50.930;4.038;2022-12-05T12:30:54;28.53;;;19.97;;
14510;SDS011;7341;50.930;4.038;2022-12-05T12:33:40;31.17;;;20.27;;
14510;SDS011;7341;50.930;4.038;2022-12-05T12:36:14;32.63;;;20.10;;
14510;SDS011;7341;50.930;4.038;2022-12-05T12:38:50;29.63;;;19.60;;
14510;SDS011;7341;50.930;4.038;2022-12-05T12:41:34;37.70;;;21.03;;
14510;SDS011;7341;50.930;4.038;2022-12-05T12:44:23;31.60;;;20.53;;
14510;SDS011;7341;50.930;4.038;2022-12-05T12:47:16;33.90;;;21.50;;
14510;SDS011;7341;50.930;4.038;2022-12-05T12:49:54;35.53;;;21.93;;
14510;SDS011;7341;50.930;4.038;2022-12-05T12:52:29;35.13;;;22.20;;
14510;SDS011;7341;50.930;4.038;2022-12-05T12:55:13;32.30;;;21.27;;
14510;SDS011;7341;50.930;4.038;2022-12-05T12:57:51;33.87;;;22.37;;
14510;SDS011;7341;50.930;4.038;2022-12-05T13:00:29;34.53;;;22.30;;
14510;SDS011;7341;50.930;4.038;2022-12-05T13:03:08;33.60;;;21.77;;
14510;SDS011;7341;50.930;4.038;2022-12-05T13:05:38;35.33;;;23.13;;
14510;SDS011;7341;50.930;4.038;2022-12-05T13:08:10;34.20;;;22.43;;
14510;SDS011;7341;50.930;4.038;2022-12-05T13:10:41;32.23;;;21.97;;
14510;SDS011;7341;50.930;4.038;2022-12-05T13:13:10;34.37;;;22.70;;
14510;SDS011;7341;50.930;4.038;2022-12-05T13:15:43;33.70;;;22.70;;
14510;SDS011;7341;50.930;4.038;2022-12-05T13:18:14;32.37;;;21.87;;
14510;SDS011;7341;50.930;4.038;2022-12-05T13:20:42;35.37;;;21.93;;
14510;SDS011;7341;50.930;4.038;2022-12-05T13:23:11;36.83;;;22.00;;
14510;SDS011;7341;50.930;4.038;2022-12-05T13:25:40;31.17;;;21.33;;
14510;SDS011;7341;50.930;4.038;2022-12-05T13:28:15;34.30;;;23.13;;
14510;SDS011;7341;50.930;4.038;2022-12-05T13:30:50;30.57;;;21.13;;
14510;SDS011;7341;50.930;4.038;2022-12-05T13:33:26;30.20;;;20.97;;
14510;SDS011;7341;50.930;4.038;2022-12-05T13:35:56;30.63;;;20.40;;
14510;SDS011;7341;50.930;4.038;2022-12-05T13:38:48;32.47;;;27.17;;
14510;SDS011;7341;50.930;4.038;2022-12-05T13:41:39;27.60;;;21.33;;
14510;SDS011;7341;50.930;4.038;2022-12-05T13:44:30;28.23;;;20.13;;
14510;SDS011;7341;50.930;4.038;2022-12-05T13:47:02;28.33;;;18.90;;
14510;SDS011;7341;50.930;4.038;2022-12-05T13:49:34;24.83;;;18.10;;
14510;SDS011;7341;50.930;4.038;2022-12-05T13:52:10;37.87;;;21.67;;
14510;SDS011;7341;50.930;4.038;2022-12-05T13:54:42;26.93;;;18.33;;
14510;SDS011;7341;50.930;4.038;2022-12-05T14:00:19;29.60;;;19.50;;
14510;SDS011;7341;50.930;4.038;2022-12-05T14:03:15;27.23;;;19.10;;
14510;SDS011;7341;50.930;4.038;2022-12-05T14:05:46;26.03;;;17.43;;
14510;SDS011;7341;50.930;4.038;2022-12-05T14:11:17;24.37;;;17.37;;
14510;SDS011;7341;50.930;4.038;2022-12-05T14:13:44;24.10;;;16.60;;
14510;SDS011;7341;50.930;4.038;2022-12-05T14:22:23;22.03;;;16.47;;
14510;SDS011;7341;50.930;4.038;2022-12-05T14:25:05;24.13;;;17.40;;
14510;SDS011;7341;50.930;4.038;2022-12-05T14:27:42;27.07;;;18.47;;
14510;SDS011;7341;50.930;4.038;2022-12-05T14:30:19;27.77;;;18.17;;
14510;SDS011;7341;50.930;4.038;2022-12-05T14:32:49;29.97;;;18.30;;
14510;SDS011;7341;50.930;4.038;2022-12-05T14:35:21;33.13;;;20.67;;
14510;SDS011;7341;50.930;4.038;2022-12-05T14:37:53;30.03;;;19.73;;
14510;SDS011;7341;50.930;4.038;2022-12-05T14:40:23;29.47;;;20.73;;
14510;SDS011;7341;50.930;4.038;2022-12-05T14:42:55;33.90;;;21.70;;
14510;SDS011;7341;50.930;4.038;2022-12-05T14:45:28;30.57;;;20.73;;
14510;SDS011;7341;50.930;4.038;2022-12-05T14:47:58;39.42;;;30.20;;
14510;SDS011;7341;50.930;4.038;2022-12-05T14:50:39;33.90;;;24.43;;
14510;SDS011;7341;50.930;4.038;2022-12-05T14:53:14;37.90;;;24.57;;
14510;SDS011;7341;50.930;4.038;2022-12-05T14:55:47;33.40;;;22.37;;
14510;SDS011;7341;50.930;4.038;2022-12-05T14:58:18;35.40;;;23.47;;
14510;SDS011;7341;50.930;4.038;2022-12-05T15:00:53;32.70;;;22.30;;
14510;SDS011;7341;50.930;4.038;2022-12-05T15:03:22;32.80;;;22.43;;
14510;SDS011;7341;50.930;4.038;2022-12-05T15:05:56;35.03;;;23.50;;
14510;SDS011;7341;50.930;4.038;2022-12-05T15:08:23;37.73;;;25.50;;
14510;SDS011;7341;50.930;4.038;2022-12-05T15:10:51;34.50;;;23.33;;
14510;SDS011;7341;50.930;4.038;2022-12-05T15:13:18;34.30;;;22.13;;
14510;SDS011;7341;50.930;4.038;2022-12-05T15:15:51;41.80;;;25.87;;